Cherry Point MCAS /Cunningham Field/
KNKT : rendu visible

Aérodrome :











RETROUVEZ-NOUS SUR...

 
LOGIN :

S'inscrire | Disclaimer

   EN    FR    IT 

 









Légende :    VFR   VFR Marginal   IFR   IFR Intensif   IFR Très Intensif
Visi : 
Plafond : 
>= 8 km
>= 3000ft
5 à 8 km
1000 à 3000 ft
1500m à 5 km
500 à 1000 ft
800 à 1500m
200 à 500 ft
< 800m
< 200 ft
Symboles :   Orages  Brouillard  Fortes neiges  Fortes précipitations  Vent > 20 kt






- Altitude de l'aérodrome : 29 ft


KNKT - Cherry Point MCAS /Cunningham Field/

DERNIER METAR :
  • 221854Z VRB04KT 10SM CLR 11/M06 A3040 RMK AO2 SLP291 T01111061

METARs EXPIRÉS :
  • 221754Z VRB05KT 10SM CLR 09/M06 A3043 RMK AO2 SLP300 T00941061 10100 21011 58023
  • 221654Z VRB06KT 10SM CLR 08/M06 A3047 RMK AO2 SLP315 T00781061

TAF TAF KNKT
Valide du 22 à 15h jusqu'au 23 à 15h UTC


2215/2315 36006KT 9999 SKC QNH3036INS
BECMG 2220/2222 VRB06KT 9999 QNH3030INS T11/2219Z TM02/2312Z



MET'MAP, la Météo Aéronautique d'un coup d'oeil ! - Copyright ORBIFLY Décembre 2007 - Disclaimer

ORBIFLY MET'MAP TEAM :

Programmation & Développement : Alexandra Zaïnal
Sur une idée originale de : Baudouin d'Aumeries
Assistance à la programmation : Marc-Olivier Méhu
Soutien technique & logistique : Manuel Goepfert

Contact : metmap@orbifly.com




SOURCES & CREDITS :

   NOAA       Earth
Advisory